Shoals, Georgia
Current Conditions -  °F | °C
As of 9:35 AM on Friday 31 Oct 2014 (Local Time) from KOKZ Reporting Station
Clear Clear  
Wind Chill: 49°   Ceiling: Unl
Heat Index: 49°   Visibility: 10mi
Dew Point: 46°   Wind: 0mph
Humidity: 88%   Direction: NA
Pressure: 29.95"   Gusts: NA
Location:  33.1878°N, 82.6701°W
Report Text: KOKZ 311335Z AUTO 00000KT 10SM CLR 09/08 A2995 RMK AO2 T00940075
Loading
Personal Weather Stations






























Interactive Weather Map
Tropical Storm Tracking
New forecast layout! Learn more

10-Day Weather Forecast

Advertisements
Track Severe Weather on mobile